Sesena, Spain
Current Conditions -  °F | °C
As of 1:00 PM on Monday 20 Oct 2014 (Local Time) from LEGT Reporting Station
Clear Clear  
Wind Chill: 73°   Ceiling: Unl
Heat Index: 73°   Visibility: 6mi
Dew Point: 45°   Wind: 5mph
Humidity: 36%   Direction: 90°E
Pressure: 30.27"   Gusts: NA
Location:  40.1°N, 3.7°W
Report Text: LEGT 201100Z 09004KT CAVOK 23/07 Q1025
Loading
Personal Weather Stations






























Interactive Weather Map
Tropical Storm Tracking
New forecast layout! Learn more

10-Day Weather Forecast

Advertisements
Track Severe Weather on mobile